sensor_id;sensor_type;location;lat;lon;timestamp;temperature;humidity
16243;DHT22;11719;51.052;6.982;2022-08-19T00:01:40;22.60;99.90
16243;DHT22;11719;51.052;6.982;2022-08-19T00:04:10;22.60;99.90
16243;DHT22;11719;51.052;6.982;2022-08-19T00:06:39;22.60;99.90
16243;DHT22;11719;51.052;6.982;2022-08-19T00:09:10;22.50;99.90
16243;DHT22;11719;51.052;6.982;2022-08-19T00:11:38;22.50;99.90
16243;DHT22;11719;51.052;6.982;2022-08-19T00:14:07;22.50;99.90
16243;DHT22;11719;51.052;6.982;2022-08-19T00:16:36;22.50;99.90
16243;DHT22;11719;51.052;6.982;2022-08-19T00:19:04;22.50;99.90
16243;DHT22;11719;51.052;6.982;2022-08-19T00:21:30;22.40;99.90
16243;DHT22;11719;51.052;6.982;2022-08-19T00:23:57;22.40;99.90
16243;DHT22;11719;51.052;6.982;2022-08-19T00:26:24;22.40;99.90
16243;DHT22;11719;51.052;6.982;2022-08-19T00:28:52;22.40;99.90
16243;DHT22;11719;51.052;6.982;2022-08-19T00:31:17;22.40;99.90
16243;DHT22;11719;51.052;6.982;2022-08-19T00:33:43;22.40;99.90
16243;DHT22;11719;51.052;6.982;2022-08-19T00:36:10;22.40;99.90
16243;DHT22;11719;51.052;6.982;2022-08-19T00:38:38;22.30;99.90
16243;DHT22;11719;51.052;6.982;2022-08-19T00:41:09;22.30;99.90
16243;DHT22;11719;51.052;6.982;2022-08-19T00:43:38;22.30;99.90
16243;DHT22;11719;51.052;6.982;2022-08-19T00:46:04;22.30;99.90
16243;DHT22;11719;51.052;6.982;2022-08-19T00:48:32;22.30;99.90
16243;DHT22;11719;51.052;6.982;2022-08-19T00:50:59;22.30;99.90
16243;DHT22;11719;51.052;6.982;2022-08-19T00:53:27;22.30;99.90
16243;DHT22;11719;51.052;6.982;2022-08-19T00:55:57;22.20;99.90
16243;DHT22;11719;51.052;6.982;2022-08-19T00:58:28;22.20;99.90
16243;DHT22;11719;51.052;6.982;2022-08-19T01:00:55;22.20;99.90
16243;DHT22;11719;51.052;6.982;2022-08-19T01:03:22;22.20;99.90
16243;DHT22;11719;51.052;6.982;2022-08-19T01:05:49;22.20;99.90
16243;DHT22;11719;51.052;6.982;2022-08-19T01:08:17;22.10;99.90
16243;DHT22;11719;51.052;6.982;2022-08-19T01:10:55;22.10;99.90
16243;DHT22;11719;51.052;6.982;2022-08-19T01:13:29;22.10;99.90
16243;DHT22;11719;51.052;6.982;2022-08-19T01:16:07;22.10;99.90
16243;DHT22;11719;51.052;6.982;2022-08-19T01:18:41;22.10;99.90
16243;DHT22;11719;51.052;6.982;2022-08-19T01:21:12;22.10;99.90
16243;DHT22;11719;51.052;6.982;2022-08-19T01:23:47;22.00;99.90
16243;DHT22;11719;51.052;6.982;2022-08-19T01:26:20;22.00;99.90
16243;DHT22;11719;51.052;6.982;2022-08-19T01:28:49;22.00;99.90
16243;DHT22;11719;51.052;6.982;2022-08-19T01:31:25;22.00;99.90
16243;DHT22;11719;51.052;6.982;2022-08-19T01:33:55;21.90;99.90
16243;DHT22;11719;51.052;6.982;2022-08-19T01:36:26;21.90;99.90
16243;DHT22;11719;51.052;6.982;2022-08-19T01:39:05;21.90;99.90
16243;DHT22;11719;51.052;6.982;2022-08-19T01:41:33;21.90;99.90
16243;DHT22;11719;51.052;6.982;2022-08-19T01:43:59;21.90;99.90
16243;DHT22;11719;51.052;6.982;2022-08-19T01:46:29;21.80;99.90
16243;DHT22;11719;51.052;6.982;2022-08-19T01:48:56;21.90;99.90
16243;DHT22;11719;51.052;6.982;2022-08-19T01:51:22;21.80;99.90
16243;DHT22;11719;51.052;6.982;2022-08-19T01:53:49;21.80;99.90
16243;DHT22;11719;51.052;6.982;2022-08-19T01:56:16;21.80;99.90
16243;DHT22;11719;51.052;6.982;2022-08-19T01:59:03;21.80;99.90
16243;DHT22;11719;51.052;6.982;2022-08-19T02:01:31;21.80;99.90
16243;DHT22;11719;51.052;6.982;2022-08-19T02:03:58;21.80;99.90
16243;DHT22;11719;51.052;6.982;2022-08-19T02:06:26;21.80;99.90
16243;DHT22;11719;51.052;6.982;2022-08-19T02:08:53;21.70;99.90
16243;DHT22;11719;51.052;6.982;2022-08-19T02:11:26;21.70;99.90
16243;DHT22;11719;51.052;6.982;2022-08-19T02:14:00;21.60;99.90
16243;DHT22;11719;51.052;6.982;2022-08-19T02:16:28;21.60;99.90
16243;DHT22;11719;51.052;6.982;2022-08-19T02:18:54;21.60;99.90
16243;DHT22;11719;51.052;6.982;2022-08-19T02:21:23;21.60;99.90
16243;DHT22;11719;51.052;6.982;2022-08-19T02:23:50;21.60;99.90
16243;DHT22;11719;51.052;6.982;2022-08-19T02:26:17;21.60;99.90
16243;DHT22;11719;51.052;6.982;2022-08-19T02:28:44;21.60;99.90
16243;DHT22;11719;51.052;6.982;2022-08-19T02:31:11;21.60;99.90
16243;DHT22;11719;51.052;6.982;2022-08-19T02:33:40;21.60;99.90
16243;DHT22;11719;51.052;6.982;2022-08-19T02:36:07;21.60;99.90
16243;DHT22;11719;51.052;6.982;2022-08-19T02:38:34;21.60;99.90
16243;DHT22;11719;51.052;6.982;2022-08-19T02:41:03;21.60;99.90
16243;DHT22;11719;51.052;6.982;2022-08-19T02:43:33;21.50;99.90
16243;DHT22;11719;51.052;6.982;2022-08-19T02:46:24;21.50;99.90
16243;DHT22;11719;51.052;6.982;2022-08-19T02:48:56;21.50;99.90
16243;DHT22;11719;51.052;6.982;2022-08-19T02:51:29;21.50;99.90
16243;DHT22;11719;51.052;6.982;2022-08-19T02:54:02;21.50;99.90
16243;DHT22;11719;51.052;6.982;2022-08-19T02:56:29;21.50;99.90
16243;DHT22;11719;51.052;6.982;2022-08-19T02:58:57;21.50;99.90
16243;DHT22;11719;51.052;6.982;2022-08-19T03:01:31;21.40;99.90
16243;DHT22;11719;51.052;6.982;2022-08-19T03:03:59;21.40;99.90
16243;DHT22;11719;51.052;6.982;2022-08-19T03:06:27;21.40;99.90
16243;DHT22;11719;51.052;6.982;2022-08-19T03:08:55;21.40;99.90
16243;DHT22;11719;51.052;6.982;2022-08-19T03:11:27;21.50;99.90
16243;DHT22;11719;51.052;6.982;2022-08-19T03:13:55;21.50;99.90
16243;DHT22;11719;51.052;6.982;2022-08-19T03:16:23;21.50;99.90
16243;DHT22;11719;51.052;6.982;2022-08-19T03:18:51;21.40;99.90
16243;DHT22;11719;51.052;6.982;2022-08-19T03:21:21;21.50;99.90
16243;DHT22;11719;51.052;6.982;2022-08-19T03:23:49;21.50;99.90
16243;DHT22;11719;51.052;6.982;2022-08-19T03:26:16;21.50;99.90
16243;DHT22;11719;51.052;6.982;2022-08-19T03:28:43;21.50;99.90
16243;DHT22;11719;51.052;6.982;2022-08-19T03:31:13;21.50;99.90
16243;DHT22;11719;51.052;6.982;2022-08-19T03:33:39;21.50;99.90
16243;DHT22;11719;51.052;6.982;2022-08-19T03:36:11;21.50;99.90
16243;DHT22;11719;51.052;6.982;2022-08-19T03:38:39;21.40;99.90
16243;DHT22;11719;51.052;6.982;2022-08-19T03:41:12;21.40;99.90
16243;DHT22;11719;51.052;6.982;2022-08-19T03:43:49;21.40;99.90
16243;DHT22;11719;51.052;6.982;2022-08-19T03:46:18;21.40;99.90
16243;DHT22;11719;51.052;6.982;2022-08-19T03:48:48;21.40;99.90
16243;DHT22;11719;51.052;6.982;2022-08-19T03:51:29;21.40;99.90
16243;DHT22;11719;51.052;6.982;2022-08-19T03:53:58;21.40;99.90
16243;DHT22;11719;51.052;6.982;2022-08-19T03:56:26;21.40;99.90
16243;DHT22;11719;51.052;6.982;2022-08-19T03:58:54;21.30;99.90
16243;DHT22;11719;51.052;6.982;2022-08-19T04:01:23;21.30;99.90
16243;DHT22;11719;51.052;6.982;2022-08-19T04:03:56;21.30;99.90
16243;DHT22;11719;51.052;6.982;2022-08-19T04:06:30;21.30;99.90
16243;DHT22;11719;51.052;6.982;2022-08-19T04:09:00;21.20;99.90
16243;DHT22;11719;51.052;6.982;2022-08-19T04:11:33;21.20;99.90
16243;DHT22;11719;51.052;6.982;2022-08-19T04:14:01;21.20;99.90
16243;DHT22;11719;51.052;6.982;2022-08-19T04:16:28;21.20;99.90
16243;DHT22;11719;51.052;6.982;2022-08-19T04:18:59;21.30;99.90
16243;DHT22;11719;51.052;6.982;2022-08-19T04:21:27;21.30;99.90
16243;DHT22;11719;51.052;6.982;2022-08-19T04:23:54;21.30;99.90
16243;DHT22;11719;51.052;6.982;2022-08-19T04:26:23;21.30;99.90
16243;DHT22;11719;51.052;6.982;2022-08-19T04:28:53;21.30;99.90
16243;DHT22;11719;51.052;6.982;2022-08-19T04:31:26;21.30;99.90
16243;DHT22;11719;51.052;6.982;2022-08-19T04:33:55;21.40;99.90
16243;DHT22;11719;51.052;6.982;2022-08-19T04:36:28;21.40;99.90
16243;DHT22;11719;51.052;6.982;2022-08-19T04:39:00;21.40;99.90
16243;DHT22;11719;51.052;6.982;2022-08-19T04:41:30;21.40;99.90
16243;DHT22;11719;51.052;6.982;2022-08-19T04:44:15;21.50;99.90
16243;DHT22;11719;51.052;6.982;2022-08-19T04:46:44;21.50;99.90
16243;DHT22;11719;51.052;6.982;2022-08-19T04:49:14;21.50;99.90
16243;DHT22;11719;51.052;6.982;2022-08-19T04:51:43;21.50;99.90
16243;DHT22;11719;51.052;6.982;2022-08-19T04:54:10;21.50;99.90
16243;DHT22;11719;51.052;6.982;2022-08-19T04:56:37;21.40;99.90
16243;DHT22;11719;51.052;6.982;2022-08-19T04:59:04;21.50;99.90
16243;DHT22;11719;51.052;6.982;2022-08-19T05:01:31;21.60;99.90
16243;DHT22;11719;51.052;6.982;2022-08-19T05:03:59;21.50;99.90
16243;DHT22;11719;51.052;6.982;2022-08-19T05:06:27;21.50;99.90
16243;DHT22;11719;51.052;6.982;2022-08-19T05:08:54;21.60;99.90
16243;DHT22;11719;51.052;6.982;2022-08-19T05:11:24;21.70;99.90
16243;DHT22;11719;51.052;6.982;2022-08-19T05:13:51;21.70;99.90
16243;DHT22;11719;51.052;6.982;2022-08-19T05:16:19;21.70;99.90
16243;DHT22;11719;51.052;6.982;2022-08-19T05:18:47;21.70;99.90
16243;DHT22;11719;51.052;6.982;2022-08-19T05:21:32;21.70;99.90
16243;DHT22;11719;51.052;6.982;2022-08-19T05:24:18;21.60;99.90
16243;DHT22;11719;51.052;6.982;2022-08-19T05:26:47;21.60;99.90
16243;DHT22;11719;51.052;6.982;2022-08-19T05:29:16;21.70;99.90
16243;DHT22;11719;51.052;6.982;2022-08-19T05:31:44;21.70;99.90
16243;DHT22;11719;51.052;6.982;2022-08-19T05:34:11;21.70;99.90
16243;DHT22;11719;51.052;6.982;2022-08-19T05:36:41;21.80;99.90
16243;DHT22;11719;51.052;6.982;2022-08-19T05:39:12;21.80;99.90
16243;DHT22;11719;51.052;6.982;2022-08-19T05:41:43;21.80;99.90
16243;DHT22;11719;51.052;6.982;2022-08-19T05:44:10;21.80;99.90
16243;DHT22;11719;51.052;6.982;2022-08-19T05:46:37;21.90;99.90
16243;DHT22;11719;51.052;6.982;2022-08-19T05:49:05;21.90;99.90
16243;DHT22;11719;51.052;6.982;2022-08-19T05:51:34;21.90;99.90
16243;DHT22;11719;51.052;6.982;2022-08-19T05:54:04;21.90;99.90
16243;DHT22;11719;51.052;6.982;2022-08-19T05:56:31;21.90;99.90
16243;DHT22;11719;51.052;6.982;2022-08-19T05:58:58;22.00;99.90
16243;DHT22;11719;51.052;6.982;2022-08-19T06:01:25;22.00;99.90
16243;DHT22;11719;51.052;6.982;2022-08-19T06:03:52;22.20;99.90
16243;DHT22;11719;51.052;6.982;2022-08-19T06:06:18;22.30;99.90
16243;DHT22;11719;51.052;6.982;2022-08-19T06:08:45;22.30;99.90
16243;DHT22;11719;51.052;6.982;2022-08-19T06:11:23;22.40;99.90
16243;DHT22;11719;51.052;6.982;2022-08-19T06:13:52;22.50;99.90
16243;DHT22;11719;51.052;6.982;2022-08-19T06:16:20;22.60;99.90
16243;DHT22;11719;51.052;6.982;2022-08-19T06:18:52;22.70;99.90
16243;DHT22;11719;51.052;6.982;2022-08-19T06:21:20;22.70;99.90
16243;DHT22;11719;51.052;6.982;2022-08-19T06:23:48;22.70;99.90
16243;DHT22;11719;51.052;6.982;2022-08-19T06:26:15;22.90;99.90
16243;DHT22;11719;51.052;6.982;2022-08-19T06:28:42;22.90;99.90
16243;DHT22;11719;51.052;6.982;2022-08-19T06:31:20;23.00;99.90
16243;DHT22;11719;51.052;6.982;2022-08-19T06:33:50;23.10;99.90
16243;DHT22;11719;51.052;6.982;2022-08-19T06:36:27;23.20;99.90
16243;DHT22;11719;51.052;6.982;2022-08-19T06:39:07;23.20;99.90
16243;DHT22;11719;51.052;6.982;2022-08-19T06:41:42;23.30;99.90
16243;DHT22;11719;51.052;6.982;2022-08-19T06:44:09;23.40;99.90
16243;DHT22;11719;51.052;6.982;2022-08-19T06:46:36;23.50;99.90
16243;DHT22;11719;51.052;6.982;2022-08-19T06:49:03;23.50;99.90
16243;DHT22;11719;51.052;6.982;2022-08-19T06:51:29;23.60;99.90
16243;DHT22;11719;51.052;6.982;2022-08-19T06:53:57;23.70;99.90
16243;DHT22;11719;51.052;6.982;2022-08-19T06:56:26;23.70;99.90
16243;DHT22;11719;51.052;6.982;2022-08-19T06:59:00;23.70;99.90
16243;DHT22;11719;51.052;6.982;2022-08-19T07:01:56;23.70;99.90
16243;DHT22;11719;51.052;6.982;2022-08-19T07:04:28;23.60;99.90
16243;DHT22;11719;51.052;6.982;2022-08-19T07:06:59;23.50;99.90
16243;DHT22;11719;51.052;6.982;2022-08-19T07:09:27;23.60;99.90
16243;DHT22;11719;51.052;6.982;2022-08-19T07:11:54;23.50;99.90
16243;DHT22;11719;51.052;6.982;2022-08-19T07:14:24;23.60;99.90
16243;DHT22;11719;51.052;6.982;2022-08-19T07:16:53;23.50;99.90
16243;DHT22;11719;51.052;6.982;2022-08-19T07:19:21;23.60;99.90
16243;DHT22;11719;51.052;6.982;2022-08-19T07:21:49;23.60;99.90
16243;DHT22;11719;51.052;6.982;2022-08-19T07:24:19;23.70;99.90
16243;DHT22;11719;51.052;6.982;2022-08-19T07:26:46;23.70;99.90
16243;DHT22;11719;51.052;6.982;2022-08-19T07:29:13;23.80;99.90
16243;DHT22;11719;51.052;6.982;2022-08-19T07:31:38;23.70;99.90
16243;DHT22;11719;51.052;6.982;2022-08-19T07:34:06;23.70;99.90
16243;DHT22;11719;51.052;6.982;2022-08-19T07:36:36;23.70;99.90
16243;DHT22;11719;51.052;6.982;2022-08-19T07:39:07;23.60;99.90
16243;DHT22;11719;51.052;6.982;2022-08-19T07:41:36;23.70;99.90
16243;DHT22;11719;51.052;6.982;2022-08-19T07:44:03;23.80;99.90
16243;DHT22;11719;51.052;6.982;2022-08-19T07:46:31;23.80;99.90
16243;DHT22;11719;51.052;6.982;2022-08-19T07:48:59;23.80;99.90
16243;DHT22;11719;51.052;6.982;2022-08-19T07:51:26;23.90;99.90
16243;DHT22;11719;51.052;6.982;2022-08-19T07:53:52;23.90;99.90
16243;DHT22;11719;51.052;6.982;2022-08-19T07:56:20;23.90;99.90
16243;DHT22;11719;51.052;6.982;2022-08-19T07:58:48;23.90;99.90
16243;DHT22;11719;51.052;6.982;2022-08-19T08:01:22;23.90;99.90
16243;DHT22;11719;51.052;6.982;2022-08-19T08:03:52;23.90;99.90
16243;DHT22;11719;51.052;6.982;2022-08-19T08:06:37;23.90;99.90
16243;DHT22;11719;51.052;6.982;2022-08-19T08:09:37;24.00;99.90
16243;DHT22;11719;51.052;6.982;2022-08-19T08:12:10;24.00;99.90
16243;DHT22;11719;51.052;6.982;2022-08-19T08:14:43;24.00;99.90
16243;DHT22;11719;51.052;6.982;2022-08-19T08:17:12;23.90;99.90
16243;DHT22;11719;51.052;6.982;2022-08-19T08:19:40;23.90;99.90
16243;DHT22;11719;51.052;6.982;2022-08-19T08:22:07;23.90;99.90
16243;DHT22;11719;51.052;6.982;2022-08-19T08:24:54;23.90;99.90
16243;DHT22;11719;51.052;6.982;2022-08-19T08:27:23;24.00;99.90
16243;DHT22;11719;51.052;6.982;2022-08-19T08:29:50;24.00;99.90
16243;DHT22;11719;51.052;6.982;2022-08-19T08:32:16;24.00;99.90
16243;DHT22;11719;51.052;6.982;2022-08-19T08:34:42;23.90;99.90
16243;DHT22;11719;51.052;6.982;2022-08-19T08:37:08;23.80;99.90
16243;DHT22;11719;51.052;6.982;2022-08-19T08:39:34;23.70;99.90
16243;DHT22;11719;51.052;6.982;2022-08-19T08:42:43;23.80;99.90
16243;DHT22;11719;51.052;6.982;2022-08-19T08:45:03;23.80;99.90
16243;DHT22;11719;51.052;6.982;2022-08-19T08:47:35;23.80;99.90
16243;DHT22;11719;51.052;6.982;2022-08-19T08:50:09;23.80;99.90
16243;DHT22;11719;51.052;6.982;2022-08-19T08:52:44;23.80;99.90
16243;DHT22;11719;51.052;6.982;2022-08-19T08:55:26;23.80;99.90
16243;DHT22;11719;51.052;6.982;2022-08-19T09:00:25;23.90;99.90
16243;DHT22;11719;51.052;6.982;2022-08-19T09:02:59;23.80;99.90
16243;DHT22;11719;51.052;6.982;2022-08-19T09:17:08;24.00;99.90
16243;DHT22;11719;51.052;6.982;2022-08-19T09:19:46;23.90;99.90
16243;DHT22;11719;51.052;6.982;2022-08-19T09:22:16;24.00;99.90
16243;DHT22;11719;51.052;6.982;2022-08-19T09:24:41;24.10;99.90
16243;DHT22;11719;51.052;6.982;2022-08-19T09:27:07;24.10;99.90
16243;DHT22;11719;51.052;6.982;2022-08-19T09:29:34;24.10;99.90
16243;DHT22;11719;51.052;6.982;2022-08-19T09:31:59;24.10;99.90
16243;DHT22;11719;51.052;6.982;2022-08-19T09:34:25;24.20;99.90
16243;DHT22;11719;51.052;6.982;2022-08-19T09:36:51;24.20;99.90
16243;DHT22;11719;51.052;6.982;2022-08-19T09:39:18;24.20;99.90
16243;DHT22;11719;51.052;6.982;2022-08-19T09:41:44;24.30;99.90
16243;DHT22;11719;51.052;6.982;2022-08-19T09:44:10;24.30;99.90
16243;DHT22;11719;51.052;6.982;2022-08-19T09:46:38;24.30;99.90
16243;DHT22;11719;51.052;6.982;2022-08-19T09:49:04;24.30;99.90
16243;DHT22;11719;51.052;6.982;2022-08-19T09:51:32;24.30;99.90
16243;DHT22;11719;51.052;6.982;2022-08-19T09:54:00;24.30;99.90
16243;DHT22;11719;51.052;6.982;2022-08-19T09:56:28;24.30;99.90
16243;DHT22;11719;51.052;6.982;2022-08-19T09:58:57;24.30;99.90
16243;DHT22;11719;51.052;6.982;2022-08-19T10:01:26;24.30;99.90
16243;DHT22;11719;51.052;6.982;2022-08-19T10:03:56;24.30;99.90
16243;DHT22;11719;51.052;6.982;2022-08-19T10:06:25;24.40;99.90
16243;DHT22;11719;51.052;6.982;2022-08-19T10:08:55;24.40;99.90
16243;DHT22;11719;51.052;6.982;2022-08-19T10:11:21;24.40;99.90
16243;DHT22;11719;51.052;6.982;2022-08-19T10:13:49;24.30;99.90
16243;DHT22;11719;51.052;6.982;2022-08-19T10:16:18;24.40;99.90
16243;DHT22;11719;51.052;6.982;2022-08-19T10:18:45;24.40;99.90
16243;DHT22;11719;51.052;6.982;2022-08-19T10:21:17;24.40;99.90
16243;DHT22;11719;51.052;6.982;2022-08-19T10:23:50;24.50;99.90
16243;DHT22;11719;51.052;6.982;2022-08-19T10:26:20;24.50;99.90
16243;DHT22;11719;51.052;6.982;2022-08-19T10:28:50;24.60;99.90
16243;DHT22;11719;51.052;6.982;2022-08-19T10:31:21;24.60;99.90
16243;DHT22;11719;51.052;6.982;2022-08-19T10:33:58;24.60;99.90
16243;DHT22;11719;51.052;6.982;2022-08-19T10:36:30;24.60;99.90
16243;DHT22;11719;51.052;6.982;2022-08-19T10:39:00;24.60;99.90
16243;DHT22;11719;51.052;6.982;2022-08-19T10:41:30;24.60;99.90
16243;DHT22;11719;51.052;6.982;2022-08-19T10:44:00;24.60;99.90
16243;DHT22;11719;51.052;6.982;2022-08-19T10:46:29;24.60;99.90
16243;DHT22;11719;51.052;6.982;2022-08-19T10:49:00;24.70;99.90
16243;DHT22;11719;51.052;6.982;2022-08-19T10:51:27;24.70;99.90
16243;DHT22;11719;51.052;6.982;2022-08-19T10:54:11;24.80;99.90
16243;DHT22;11719;51.052;6.982;2022-08-19T10:56:37;24.80;99.90
16243;DHT22;11719;51.052;6.982;2022-08-19T10:59:26;24.80;99.90
16243;DHT22;11719;51.052;6.982;2022-08-19T11:01:58;24.80;99.90
16243;DHT22;11719;51.052;6.982;2022-08-19T11:04:25;24.90;99.90
16243;DHT22;11719;51.052;6.982;2022-08-19T11:06:51;25.00;99.90
16243;DHT22;11719;51.052;6.982;2022-08-19T11:09:26;25.00;99.90
16243;DHT22;11719;51.052;6.982;2022-08-19T11:11:57;25.00;99.90
16243;DHT22;11719;51.052;6.982;2022-08-19T11:14:23;25.00;99.90
16243;DHT22;11719;51.052;6.982;2022-08-19T11:16:51;25.00;99.90
16243;DHT22;11719;51.052;6.982;2022-08-19T11:19:22;25.00;99.90
16243;DHT22;11719;51.052;6.982;2022-08-19T11:21:49;24.90;99.90
16243;DHT22;11719;51.052;6.982;2022-08-19T11:24:22;24.90;99.90
16243;DHT22;11719;51.052;6.982;2022-08-19T11:26:52;25.00;99.90
16243;DHT22;11719;51.052;6.982;2022-08-19T11:29:23;24.90;99.90
16243;DHT22;11719;51.052;6.982;2022-08-19T11:31:53;24.90;99.90
16243;DHT22;11719;51.052;6.982;2022-08-19T11:34:22;24.80;99.90
16243;DHT22;11719;51.052;6.982;2022-08-19T11:36:51;24.90;99.90
16243;DHT22;11719;51.052;6.982;2022-08-19T11:39:20;24.90;99.90
16243;DHT22;11719;51.052;6.982;2022-08-19T11:41:47;24.90;99.90
16243;DHT22;11719;51.052;6.982;2022-08-19T11:44:13;24.80;99.90
16243;DHT22;11719;51.052;6.982;2022-08-19T11:46:41;24.80;99.90
16243;DHT22;11719;51.052;6.982;2022-08-19T11:49:11;24.90;99.90
16243;DHT22;11719;51.052;6.982;2022-08-19T11:51:38;24.90;99.90
16243;DHT22;11719;51.052;6.982;2022-08-19T11:54:05;24.90;99.90
16243;DHT22;11719;51.052;6.982;2022-08-19T11:56:32;24.90;99.90
16243;DHT22;11719;51.052;6.982;2022-08-19T11:58:57;24.80;99.90
16243;DHT22;11719;51.052;6.982;2022-08-19T12:01:25;24.90;99.90
16243;DHT22;11719;51.052;6.982;2022-08-19T12:03:53;24.90;99.90
16243;DHT22;11719;51.052;6.982;2022-08-19T12:06:25;25.00;99.90
16243;DHT22;11719;51.052;6.982;2022-08-19T12:08:55;24.90;99.90
16243;DHT22;11719;51.052;6.982;2022-08-19T12:11:25;24.90;99.90
16243;DHT22;11719;51.052;6.982;2022-08-19T12:13:52;24.80;99.90
16243;DHT22;11719;51.052;6.982;2022-08-19T12:16:22;24.90;99.90
16243;DHT22;11719;51.052;6.982;2022-08-19T12:18:52;24.90;99.90
16243;DHT22;11719;51.052;6.982;2022-08-19T12:21:25;24.90;99.90
16243;DHT22;11719;51.052;6.982;2022-08-19T12:23:54;25.00;99.90
16243;DHT22;11719;51.052;6.982;2022-08-19T12:26:21;25.00;99.90
16243;DHT22;11719;51.052;6.982;2022-08-19T12:28:47;25.00;99.90
16243;DHT22;11719;51.052;6.982;2022-08-19T12:31:16;25.00;99.90
16243;DHT22;11719;51.052;6.982;2022-08-19T12:33:45;25.00;99.90
16243;DHT22;11719;51.052;6.982;2022-08-19T12:36:14;25.00;99.90
16243;DHT22;11719;51.052;6.982;2022-08-19T12:38:41;25.10;99.90
16243;DHT22;11719;51.052;6.982;2022-08-19T12:41:13;25.10;99.90
16243;DHT22;11719;51.052;6.982;2022-08-19T12:43:40;25.10;99.90
16243;DHT22;11719;51.052;6.982;2022-08-19T12:46:07;25.20;99.90
16243;DHT22;11719;51.052;6.982;2022-08-19T12:48:35;25.10;99.90
16243;DHT22;11719;51.052;6.982;2022-08-19T12:51:06;25.10;99.90
16243;DHT22;11719;51.052;6.982;2022-08-19T12:53:38;25.00;99.90
16243;DHT22;11719;51.052;6.982;2022-08-19T12:56:04;25.00;99.90
16243;DHT22;11719;51.052;6.982;2022-08-19T12:58:30;25.00;99.90
16243;DHT22;11719;51.052;6.982;2022-08-19T13:01:05;25.00;99.90
16243;DHT22;11719;51.052;6.982;2022-08-19T13:03:32;25.00;99.90
16243;DHT22;11719;51.052;6.982;2022-08-19T13:05:58;25.00;99.90
16243;DHT22;11719;51.052;6.982;2022-08-19T13:08:24;25.00;99.90
16243;DHT22;11719;51.052;6.982;2022-08-19T13:10:50;25.00;99.90
16243;DHT22;11719;51.052;6.982;2022-08-19T13:13:16;25.00;99.90
16243;DHT22;11719;51.052;6.982;2022-08-19T13:15:42;25.00;99.90
16243;DHT22;11719;51.052;6.982;2022-08-19T13:18:11;25.10;99.90
16243;DHT22;11719;51.052;6.982;2022-08-19T13:20:38;25.20;99.90
16243;DHT22;11719;51.052;6.982;2022-08-19T13:23:06;25.20;99.90
16243;DHT22;11719;51.052;6.982;2022-08-19T13:25:32;25.30;99.90
16243;DHT22;11719;51.052;6.982;2022-08-19T13:27:59;25.40;98.70
16243;DHT22;11719;51.052;6.982;2022-08-19T13:30:25;25.40;99.90
16243;DHT22;11719;51.052;6.982;2022-08-19T13:33:10;25.30;99.90
16243;DHT22;11719;51.052;6.982;2022-08-19T13:35:41;25.50;99.90
16243;DHT22;11719;51.052;6.982;2022-08-19T13:38:10;25.60;99.90
16243;DHT22;11719;51.052;6.982;2022-08-19T13:40:36;25.50;99.80
16243;DHT22;11719;51.052;6.982;2022-08-19T13:43:03;25.60;99.90
16243;DHT22;11719;51.052;6.982;2022-08-19T13:45:31;25.70;99.90
16243;DHT22;11719;51.052;6.982;2022-08-19T13:48:03;25.80;99.90
16243;DHT22;11719;51.052;6.982;2022-08-19T13:50:37;25.90;99.40
16243;DHT22;11719;51.052;6.982;2022-08-19T13:53:07;25.90;99.10
16243;DHT22;11719;51.052;6.982;2022-08-19T13:55:33;26.20;97.50
16243;DHT22;11719;51.052;6.982;2022-08-19T13:58:01;26.20;97.40
16243;DHT22;11719;51.052;6.982;2022-08-19T14:00:30;26.10;99.00
16243;DHT22;11719;51.052;6.982;2022-08-19T14:02:59;26.20;96.50
16243;DHT22;11719;51.052;6.982;2022-08-19T14:05:26;26.40;95.80
16243;DHT22;11719;51.052;6.982;2022-08-19T14:07:54;26.30;97.00
16243;DHT22;11719;51.052;6.982;2022-08-19T14:10:21;26.30;96.80
16243;DHT22;11719;51.052;6.982;2022-08-19T14:12:48;26.30;97.40
16243;DHT22;11719;51.052;6.982;2022-08-19T14:15:15;26.20;98.10
16243;DHT22;11719;51.052;6.982;2022-08-19T14:17:43;26.30;95.00
16243;DHT22;11719;51.052;6.982;2022-08-19T14:20:11;26.50;93.90
16243;DHT22;11719;51.052;6.982;2022-08-19T14:22:39;26.40;97.50
16243;DHT22;11719;51.052;6.982;2022-08-19T14:25:08;26.50;96.00
16243;DHT22;11719;51.052;6.982;2022-08-19T14:27:39;26.50;95.50
16243;DHT22;11719;51.052;6.982;2022-08-19T14:30:08;26.50;98.00
16243;DHT22;11719;51.052;6.982;2022-08-19T14:32:36;26.50;96.30
16243;DHT22;11719;51.052;6.982;2022-08-19T14:35:03;26.40;97.20
16243;DHT22;11719;51.052;6.982;2022-08-19T14:37:30;26.20;97.40
16243;DHT22;11719;51.052;6.982;2022-08-19T14:39:56;26.20;96.80
16243;DHT22;11719;51.052;6.982;2022-08-19T14:42:21;26.30;97.50
16243;DHT22;11719;51.052;6.982;2022-08-19T14:44:47;26.50;94.30
16243;DHT22;11719;51.052;6.982;2022-08-19T14:47:13;26.60;97.40
16243;DHT22;11719;51.052;6.982;2022-08-19T14:49:39;26.60;97.40
16243;DHT22;11719;51.052;6.982;2022-08-19T14:52:05;26.60;97.70
16243;DHT22;11719;51.052;6.982;2022-08-19T14:54:31;26.90;96.90
16243;DHT22;11719;51.052;6.982;2022-08-19T14:56:57;27.20;93.50
16243;DHT22;11719;51.052;6.982;2022-08-19T14:59:24;27.20;94.30
16243;DHT22;11719;51.052;6.982;2022-08-19T15:01:50;27.30;94.30
16243;DHT22;11719;51.052;6.982;2022-08-19T15:04:15;27.20;95.00
16243;DHT22;11719;51.052;6.982;2022-08-19T15:06:41;27.60;93.00
16243;DHT22;11719;51.052;6.982;2022-08-19T15:09:08;27.40;95.60
16243;DHT22;11719;51.052;6.982;2022-08-19T15:11:35;27.30;93.90
16243;DHT22;11719;51.052;6.982;2022-08-19T15:14:02;27.30;95.50
16243;DHT22;11719;51.052;6.982;2022-08-19T15:16:30;27.10;93.90
16243;DHT22;11719;51.052;6.982;2022-08-19T15:18:58;27.10;92.40
16243;DHT22;11719;51.052;6.982;2022-08-19T15:21:25;27.00;93.90
16243;DHT22;11719;51.052;6.982;2022-08-19T15:23:52;26.90;93.30
16243;DHT22;11719;51.052;6.982;2022-08-19T15:26:19;26.80;93.20
16243;DHT22;11719;51.052;6.982;2022-08-19T15:28:46;26.60;96.40
16243;DHT22;11719;51.052;6.982;2022-08-19T15:31:13;26.50;94.10
16243;DHT22;11719;51.052;6.982;2022-08-19T15:33:42;26.40;94.30
16243;DHT22;11719;51.052;6.982;2022-08-19T15:36:10;26.20;95.80
16243;DHT22;11719;51.052;6.982;2022-08-19T15:38:38;26.10;97.30
16243;DHT22;11719;51.052;6.982;2022-08-19T15:41:16;26.00;95.20
16243;DHT22;11719;51.052;6.982;2022-08-19T15:43:55;26.00;95.70
16243;DHT22;11719;51.052;6.982;2022-08-19T15:46:28;25.90;97.10
16243;DHT22;11719;51.052;6.982;2022-08-19T15:48:56;25.90;98.10
16243;DHT22;11719;51.052;6.982;2022-08-19T15:51:23;25.80;98.00
16243;DHT22;11719;51.052;6.982;2022-08-19T15:53:50;25.70;98.30
16243;DHT22;11719;51.052;6.982;2022-08-19T15:56:17;25.70;98.60
16243;DHT22;11719;51.052;6.982;2022-08-19T15:58:44;25.60;98.10